createdAt,value
2023-03-29T00:01:50.258Z,61.19
2023-03-29T00:06:50.682Z,61.38
2023-03-29T00:11:50.915Z,61.55
2023-03-29T00:16:51.629Z,61.69
2023-03-29T00:21:52.348Z,61.82
2023-03-29T00:26:51.831Z,61.90
2023-03-29T00:31:54.132Z,62.06
2023-03-29T00:36:58.130Z,62.13
2023-03-29T00:41:58.101Z,62.21
2023-03-29T00:46:57.671Z,62.31
2023-03-29T00:51:57.336Z,62.32
2023-03-29T01:02:02.472Z,62.51
2023-03-29T01:07:08.311Z,62.63
2023-03-29T01:12:17.226Z,62.72
2023-03-29T01:17:21.897Z,62.88
2023-03-29T01:22:33.916Z,62.98
2023-03-29T01:27:55.933Z,63.14
2023-03-29T01:33:01.781Z,63.31
2023-03-29T01:38:08.896Z,63.44
2023-03-29T01:43:23.656Z,63.65
2023-03-29T01:48:32.454Z,63.80
2023-03-29T01:53:39.562Z,64.03
2023-03-29T01:58:45.069Z,64.27
2023-03-29T02:03:51.059Z,64.41
2023-03-29T02:08:52.691Z,64.57
2023-03-29T02:13:51.910Z,64.73
2023-03-29T02:18:54.442Z,64.99
2023-03-29T02:23:55.941Z,65.18
2023-03-29T02:28:57.574Z,65.36
2023-03-29T02:34:02.421Z,65.62
2023-03-29T02:39:06.137Z,65.84
2023-03-29T02:44:09.311Z,66.15
2023-03-29T02:49:10.268Z,66.49
2023-03-29T02:54:17.983Z,66.82
2023-03-29T02:59:19.664Z,67.04
2023-03-29T03:04:20.752Z,67.29
2023-03-29T03:09:21.417Z,67.57
2023-03-29T03:14:22.963Z,67.81
2023-03-29T03:19:22.867Z,68.00
2023-03-29T03:24:22.417Z,68.25
2023-03-29T03:29:21.425Z,68.57
2023-03-29T03:34:46.389Z,68.88
2023-03-29T03:39:46.392Z,69.26
2023-03-29T03:44:46.493Z,69.75
2023-03-29T03:50:12.143Z,70.22
2023-03-29T03:55:13.615Z,70.60
2023-03-29T04:00:23.408Z,70.91
2023-03-29T04:05:40.051Z,71.12
2023-03-29T04:10:40.168Z,71.38
2023-03-29T04:15:49.991Z,71.57
2023-03-29T04:20:49.862Z,71.75
2023-03-29T04:25:50.667Z,71.99
2023-03-29T04:31:15.933Z,72.24
2023-03-29T04:36:25.498Z,72.43
2023-03-29T04:41:25.106Z,72.54
2023-03-29T04:46:33.374Z,72.69
2023-03-29T04:51:54.569Z,72.78
2023-03-29T04:56:57.179Z,72.89
2023-03-29T05:02:11.018Z,72.99
2023-03-29T05:07:12.023Z,72.93
2023-03-29T05:12:12.037Z,72.74
2023-03-29T05:17:26.851Z,72.54
2023-03-29T05:22:28.397Z,72.32
2023-03-29T05:27:28.323Z,72.21
2023-03-29T05:32:32.973Z,72.12
2023-03-29T05:37:33.589Z,72.06
2023-03-29T05:42:33.483Z,71.96
2023-03-29T05:47:38.969Z,71.82
2023-03-29T05:52:41.262Z,71.65
2023-03-29T05:57:41.669Z,71.51
2023-03-29T06:02:42.325Z,71.46
2023-03-29T06:07:42.424Z,71.36
2023-03-29T06:13:07.980Z,71.21
2023-03-29T06:18:08.156Z,70.82
2023-03-29T06:23:08.095Z,70.58
2023-03-29T06:28:07.977Z,70.31
2023-03-29T06:33:08.183Z,69.71
2023-03-29T06:38:22.770Z,69.29
2023-03-29T06:43:30.308Z,69.01
2023-03-29T06:48:39.970Z,68.41
2023-03-29T06:53:40.572Z,68.25
2023-03-29T06:58:40.876Z,68.11
2023-03-29T07:04:08.243Z,67.57
2023-03-29T07:09:20.721Z,66.82
2023-03-29T07:14:40.526Z,66.32
2023-03-29T07:19:40.455Z,66.02
2023-03-29T07:24:47.756Z,65.86
2023-03-29T07:29:46.804Z,65.39
2023-03-29T07:34:48.088Z,64.54
2023-03-29T07:39:56.886Z,64.44
2023-03-29T07:45:10.342Z,64.06
2023-03-29T07:50:20.039Z,63.72
2023-03-29T07:55:20.153Z,63.47
2023-03-29T08:00:30.624Z,62.74
2023-03-29T08:05:45.260Z,62.26
2023-03-29T08:10:47.328Z,61.79
2023-03-29T08:16:15.871Z,61.18
2023-03-29T08:21:21.132Z,60.60
2023-03-29T08:26:20.955Z,60.40
2023-03-29T08:31:21.117Z,59.31
2023-03-29T08:36:20.347Z,57.42
2023-03-29T08:41:43.962Z,55.99
2023-03-29T08:46:53.466Z,54.74
2023-03-29T08:52:05.492Z,54.43
2023-03-29T08:57:18.225Z,52.39
2023-03-29T09:02:31.325Z,51.38
2023-03-29T09:07:33.137Z,51.00
2023-03-29T09:12:55.369Z,48.63
2023-03-29T09:18:09.474Z,45.28
2023-03-29T09:23:28.572Z,45.34
2023-03-29T09:29:02.889Z,44.28
2023-03-29T09:34:10.631Z,44.29
2023-03-29T09:39:31.144Z,42.51
2023-03-29T09:44:44.222Z,41.95
2023-03-29T09:49:52.249Z,42.07
2023-03-29T09:54:53.547Z,40.99
2023-03-29T10:00:11.395Z,39.47
2023-03-29T10:05:22.064Z,38.28
2023-03-29T10:10:31.978Z,36.90
2023-03-29T10:15:33.855Z,35.66
2023-03-29T10:20:35.866Z,31.34
2023-03-29T10:25:43.004Z,30.50
2023-03-29T10:30:43.839Z,30.17
2023-03-29T10:35:44.999Z,31.67
2023-03-29T10:40:49.617Z,31.51
2023-03-29T10:45:52.015Z,30.66
2023-03-29T10:50:58.858Z,30.22
2023-03-29T10:56:20.064Z,29.31
2023-03-29T11:01:31.817Z,29.94
2023-03-29T11:06:40.149Z,30.45
2023-03-29T11:12:16.122Z,28.50
2023-03-29T11:17:31.848Z,28.67
2023-03-29T11:22:42.522Z,28.51
2023-03-29T11:27:51.578Z,27.83
2023-03-29T11:33:04.538Z,27.89
2023-03-29T11:38:15.221Z,27.50
2023-03-29T11:43:22.381Z,28.74
2023-03-29T11:48:31.405Z,28.77
2023-03-29T11:53:40.962Z,28.72
2023-03-29T11:58:48.578Z,28.52
2023-03-29T12:03:55.430Z,29.10
2023-03-29T12:09:01.282Z,27.90
2023-03-29T12:14:06.642Z,27.48
2023-03-29T12:19:18.302Z,26.57
2023-03-29T12:24:20.883Z,26.26
2023-03-29T12:29:41.225Z,25.58
2023-03-29T12:34:58.041Z,25.97
2023-03-29T12:40:02.304Z,26.38
2023-03-29T12:45:35.081Z,25.77
2023-03-29T12:50:50.509Z,24.34
2023-03-29T12:56:12.645Z,23.58
2023-03-29T13:01:27.262Z,24.38
2023-03-29T13:06:52.232Z,23.33
2023-03-29T13:12:00.988Z,23.76
2023-03-29T13:22:24.960Z,23.83
2023-03-29T13:27:37.422Z,23.35
2023-03-29T13:32:55.579Z,22.53
2023-03-29T13:38:11.244Z,23.04
2023-03-29T13:43:25.155Z,22.68
2023-03-29T13:48:33.757Z,21.77
2023-03-29T13:53:37.648Z,21.56
2023-03-29T13:58:46.708Z,22.85
2023-03-29T14:03:51.641Z,21.65
2023-03-29T14:08:52.881Z,20.99
2023-03-29T14:13:55.024Z,20.97
2023-03-29T14:18:59.592Z,20.63
2023-03-29T14:24:02.720Z,19.98
2023-03-29T14:29:04.460Z,20.11
2023-03-29T14:34:07.909Z,19.51
2023-03-29T14:39:14.002Z,19.20
2023-03-29T14:44:16.548Z,18.93
2023-03-29T14:49:20.120Z,18.45
2023-03-29T14:54:27.218Z,18.99
2023-03-29T14:59:40.358Z,18.74
2023-03-29T15:04:41.686Z,18.88
2023-03-29T15:09:41.007Z,19.20
2023-03-29T15:14:41.932Z,19.53
2023-03-29T15:19:41.363Z,20.33
2023-03-29T15:24:50.729Z,20.56
2023-03-29T15:29:50.934Z,21.82
2023-03-29T15:34:59.184Z,22.59
2023-03-29T15:39:59.180Z,22.85
2023-03-29T15:44:59.704Z,23.08
2023-03-29T15:49:58.496Z,23.57
2023-03-29T15:54:58.074Z,23.50
2023-03-29T15:59:57.232Z,23.70
2023-03-29T16:04:56.643Z,24.33
2023-03-29T16:09:55.823Z,24.28
2023-03-29T16:14:55.876Z,24.70
2023-03-29T16:19:55.045Z,24.60
2023-03-29T16:24:54.226Z,24.84
2023-03-29T16:29:53.885Z,24.73
2023-03-29T16:34:52.597Z,24.56
2023-03-29T16:39:51.278Z,24.59
2023-03-29T16:44:51.554Z,24.85
2023-03-29T16:49:50.481Z,25.17
2023-03-29T16:54:49.522Z,25.42
2023-03-29T16:59:49.221Z,25.93
2023-03-29T17:04:49.486Z,26.22
2023-03-29T17:09:51.579Z,26.58
2023-03-29T17:14:53.352Z,27.00
2023-03-29T17:19:52.456Z,27.38
2023-03-29T17:24:51.806Z,27.72
2023-03-29T17:29:51.115Z,28.15
2023-03-29T17:34:49.967Z,28.68
2023-03-29T17:39:50.135Z,28.94
2023-03-29T17:44:49.420Z,29.33
2023-03-29T17:49:48.799Z,29.61
2023-03-29T17:54:48.062Z,29.77
2023-03-29T17:59:47.528Z,30.16
2023-03-29T18:04:47.304Z,30.49
2023-03-29T18:09:46.429Z,31.05
2023-03-29T18:14:45.754Z,31.61
2023-03-29T18:19:45.459Z,31.90
2023-03-29T18:24:44.506Z,32.20
2023-03-29T18:29:44.719Z,32.58
2023-03-29T18:34:47.232Z,32.92
2023-03-29T18:39:49.274Z,33.24
2023-03-29T18:44:48.635Z,33.45
2023-03-29T18:49:48.145Z,33.66
2023-03-29T18:54:47.123Z,33.87
2023-03-29T18:59:46.682Z,34.10
2023-03-29T19:04:46.607Z,34.30
2023-03-29T19:09:48.625Z,34.44
2023-03-29T19:14:48.293Z,34.69
2023-03-29T19:19:59.595Z,34.81
2023-03-29T19:24:59.076Z,35.03
2023-03-29T19:30:01.051Z,35.19
2023-03-29T19:35:00.492Z,35.26
2023-03-29T19:39:59.853Z,35.44
2023-03-29T19:44:58.911Z,35.66
2023-03-29T19:50:00.275Z,35.74
2023-03-29T19:55:01.073Z,35.86
2023-03-29T20:00:01.627Z,35.97
2023-03-29T20:05:01.739Z,36.04
2023-03-29T20:10:01.605Z,36.24
2023-03-29T20:15:00.540Z,36.30
2023-03-29T20:20:00.183Z,36.41
2023-03-29T20:24:59.451Z,36.54
2023-03-29T20:29:59.294Z,36.64
2023-03-29T20:34:58.916Z,36.78
2023-03-29T20:39:59.477Z,36.91
2023-03-29T20:45:00.365Z,37.09
2023-03-29T20:50:04.407Z,37.49
2023-03-29T20:55:04.777Z,37.85
2023-03-29T21:00:12.110Z,37.97
2023-03-29T21:05:14.222Z,38.17
2023-03-29T21:10:15.634Z,38.40
2023-03-29T21:15:18.869Z,38.63
2023-03-29T21:20:20.031Z,39.01
2023-03-29T21:25:19.744Z,39.26
2023-03-29T21:30:19.459Z,39.47
2023-03-29T21:35:19.611Z,39.72
2023-03-29T21:40:20.883Z,40.10
2023-03-29T21:45:21.285Z,40.39
2023-03-29T21:50:20.687Z,40.69
2023-03-29T21:55:24.200Z,40.96
2023-03-29T22:00:35.586Z,41.22
2023-03-29T22:05:38.959Z,41.47
2023-03-29T22:10:41.314Z,41.69
2023-03-29T22:15:40.636Z,41.81
2023-03-29T22:20:40.247Z,41.99
2023-03-29T22:25:41.474Z,42.08
2023-03-29T22:30:41.417Z,42.18
2023-03-29T22:35:41.045Z,42.35
2023-03-29T22:40:44.250Z,42.40
2023-03-29T22:45:44.179Z,42.37
2023-03-29T22:50:44.109Z,42.47
2023-03-29T22:55:45.027Z,42.53
2023-03-29T23:00:44.214Z,42.76
2023-03-29T23:05:43.554Z,42.97
2023-03-29T23:10:42.891Z,43.13
2023-03-29T23:15:49.624Z,43.37
2023-03-29T23:20:49.878Z,43.69
2023-03-29T23:25:51.765Z,43.96
2023-03-29T23:30:58.130Z,44.29
2023-03-29T23:35:59.124Z,44.56
2023-03-29T23:41:01.010Z,44.81
2023-03-29T23:46:06.982Z,45.00
2023-03-29T23:51:08.477Z,45.19
2023-03-29T23:56:10.837Z,45.35
